sensor_id;sensor_type;location;lat;lon;timestamp;pressure;altitude;pressure_sealevel;temperature
24639;BMP180;1641;51.306;12.384;2023-04-03T00:01:04;101306.00;;;3.40
24639;BMP180;1641;51.306;12.384;2023-04-03T00:03:30;101280.00;;;3.40
24639;BMP180;1641;51.306;12.384;2023-04-03T00:05:55;101312.00;;;3.40
24639;BMP180;1641;51.306;12.384;2023-04-03T00:08:24;101283.00;;;3.20
24639;BMP180;1641;51.306;12.384;2023-04-03T00:10:58;101309.00;;;3.30
24639;BMP180;1641;51.306;12.384;2023-04-03T00:13:27;101311.00;;;3.10
24639;BMP180;1641;51.306;12.384;2023-04-03T00:15:53;101315.00;;;3.10
24639;BMP180;1641;51.306;12.384;2023-04-03T00:18:21;101319.00;;;2.80
24639;BMP180;1641;51.306;12.384;2023-04-03T00:20:47;101320.00;;;3.00
24639;BMP180;1641;51.306;12.384;2023-04-03T00:23:12;101313.00;;;3.10
24639;BMP180;1641;51.306;12.384;2023-04-03T00:25:38;101317.00;;;3.30
24639;BMP180;1641;51.306;12.384;2023-04-03T00:28:04;101327.00;;;3.50
24639;BMP180;1641;51.306;12.384;2023-04-03T00:30:32;101333.00;;;3.20
24639;BMP180;1641;51.306;12.384;2023-04-03T00:32:58;101333.00;;;3.20
24639;BMP180;1641;51.306;12.384;2023-04-03T00:35:31;101329.00;;;2.80
24639;BMP180;1641;51.306;12.384;2023-04-03T00:38:01;101331.00;;;2.90
24639;BMP180;1641;51.306;12.384;2023-04-03T00:40:27;101337.00;;;2.80
24639;BMP180;1641;51.306;12.384;2023-04-03T00:42:57;101330.00;;;2.80
24639;BMP180;1641;51.306;12.384;2023-04-03T00:45:28;101326.00;;;2.80
24639;BMP180;1641;51.306;12.384;2023-04-03T00:47:55;101328.00;;;2.80
24639;BMP180;1641;51.306;12.384;2023-04-03T00:50:21;101326.00;;;2.80
24639;BMP180;1641;51.306;12.384;2023-04-03T00:52:47;101326.00;;;3.10
24639;BMP180;1641;51.306;12.384;2023-04-03T00:55:14;101333.00;;;2.90
24639;BMP180;1641;51.306;12.384;2023-04-03T00:57:40;101335.00;;;2.80
24639;BMP180;1641;51.306;12.384;2023-04-03T01:00:10;101344.00;;;2.50
24639;BMP180;1641;51.306;12.384;2023-04-03T01:02:36;101336.00;;;2.50
24639;BMP180;1641;51.306;12.384;2023-04-03T01:05:01;101336.00;;;2.50
24639;BMP180;1641;51.306;12.384;2023-04-03T01:07:29;101346.00;;;2.60
24639;BMP180;1641;51.306;12.384;2023-04-03T01:10:00;101341.00;;;2.70
24639;BMP180;1641;51.306;12.384;2023-04-03T01:14:56;101343.00;;;2.50
24639;BMP180;1641;51.306;12.384;2023-04-03T01:17:30;101340.00;;;2.40
24639;BMP180;1641;51.306;12.384;2023-04-03T01:22:49;101337.00;;;2.00
24639;BMP180;1641;51.306;12.384;2023-04-03T01:25:17;101328.00;;;2.20
24639;BMP180;1641;51.306;12.384;2023-04-03T01:27:42;101334.00;;;2.40
24639;BMP180;1641;51.306;12.384;2023-04-03T01:30:08;101337.00;;;2.30
24639;BMP180;1641;51.306;12.384;2023-04-03T01:32:34;101331.00;;;1.90
24639;BMP180;1641;51.306;12.384;2023-04-03T01:34:59;101340.00;;;2.00
24639;BMP180;1641;51.306;12.384;2023-04-03T01:37:24;101325.00;;;1.90
24639;BMP180;1641;51.306;12.384;2023-04-03T01:39:50;101329.00;;;1.90
24639;BMP180;1641;51.306;12.384;2023-04-03T01:42:15;101317.00;;;1.80
24639;BMP180;1641;51.306;12.384;2023-04-03T01:44:41;101355.00;;;1.70
24639;BMP180;1641;51.306;12.384;2023-04-03T01:47:06;101339.00;;;1.60
24639;BMP180;1641;51.306;12.384;2023-04-03T01:49:32;101351.00;;;1.90
24639;BMP180;1641;51.306;12.384;2023-04-03T01:51:57;101351.00;;;1.70
24639;BMP180;1641;51.306;12.384;2023-04-03T01:54:22;101334.00;;;1.80
24639;BMP180;1641;51.306;12.384;2023-04-03T01:56:48;101351.00;;;1.50
24639;BMP180;1641;51.306;12.384;2023-04-03T01:59:13;101356.00;;;1.70
24639;BMP180;1641;51.306;12.384;2023-04-03T02:01:39;101323.00;;;1.60
24639;BMP180;1641;51.306;12.384;2023-04-03T02:04:04;101302.00;;;1.70
24639;BMP180;1641;51.306;12.384;2023-04-03T02:06:30;101338.00;;;1.60
24639;BMP180;1641;51.306;12.384;2023-04-03T02:08:55;101338.00;;;1.50
24639;BMP180;1641;51.306;12.384;2023-04-03T02:11:21;101351.00;;;1.50
24639;BMP180;1641;51.306;12.384;2023-04-03T02:13:46;101365.00;;;1.70
24639;BMP180;1641;51.306;12.384;2023-04-03T02:16:11;101365.00;;;1.50
24639;BMP180;1641;51.306;12.384;2023-04-03T02:18:37;101319.00;;;1.60
24639;BMP180;1641;51.306;12.384;2023-04-03T02:21:03;101371.00;;;1.80
24639;BMP180;1641;51.306;12.384;2023-04-03T02:23:28;101357.00;;;1.50
24639;BMP180;1641;51.306;12.384;2023-04-03T02:26:02;101332.00;;;1.70
24639;BMP180;1641;51.306;12.384;2023-04-03T02:28:28;101380.00;;;1.60
24639;BMP180;1641;51.306;12.384;2023-04-03T02:30:53;101375.00;;;1.70
24639;BMP180;1641;51.306;12.384;2023-04-03T02:33:18;101378.00;;;1.50
24639;BMP180;1641;51.306;12.384;2023-04-03T02:35:43;101382.00;;;1.30
24639;BMP180;1641;51.306;12.384;2023-04-03T02:38:11;101329.00;;;1.30
24639;BMP180;1641;51.306;12.384;2023-04-03T02:40:36;101397.00;;;1.30
24639;BMP180;1641;51.306;12.384;2023-04-03T02:43:03;101386.00;;;1.30
24639;BMP180;1641;51.306;12.384;2023-04-03T02:45:28;101397.00;;;1.20
24639;BMP180;1641;51.306;12.384;2023-04-03T02:47:55;101371.00;;;1.40
24639;BMP180;1641;51.306;12.384;2023-04-03T02:50:21;101406.00;;;1.30
24639;BMP180;1641;51.306;12.384;2023-04-03T02:52:46;101398.00;;;1.20
24639;BMP180;1641;51.306;12.384;2023-04-03T02:55:13;101394.00;;;1.10
24639;BMP180;1641;51.306;12.384;2023-04-03T02:57:39;101391.00;;;1.10
24639;BMP180;1641;51.306;12.384;2023-04-03T03:00:05;101391.00;;;1.00
24639;BMP180;1641;51.306;12.384;2023-04-03T03:02:31;101404.00;;;1.00
24639;BMP180;1641;51.306;12.384;2023-04-03T03:04:57;101406.00;;;0.90
24639;BMP180;1641;51.306;12.384;2023-04-03T03:07:23;101401.00;;;0.80
24639;BMP180;1641;51.306;12.384;2023-04-03T03:09:48;101408.00;;;1.00
24639;BMP180;1641;51.306;12.384;2023-04-03T03:12:13;101411.00;;;0.80
24639;BMP180;1641;51.306;12.384;2023-04-03T03:14:38;101421.00;;;0.50
24639;BMP180;1641;51.306;12.384;2023-04-03T03:17:04;101413.00;;;0.60
24639;BMP180;1641;51.306;12.384;2023-04-03T03:19:29;101428.00;;;0.60
24639;BMP180;1641;51.306;12.384;2023-04-03T03:21:54;101401.00;;;0.80
24639;BMP180;1641;51.306;12.384;2023-04-03T03:24:20;101418.00;;;0.90
24639;BMP180;1641;51.306;12.384;2023-04-03T03:26:45;101401.00;;;0.80
24639;BMP180;1641;51.306;12.384;2023-04-03T03:29:10;101413.00;;;0.80
24639;BMP180;1641;51.306;12.384;2023-04-03T03:31:36;101420.00;;;0.80
24639;BMP180;1641;51.306;12.384;2023-04-03T03:34:01;101425.00;;;0.70
24639;BMP180;1641;51.306;12.384;2023-04-03T03:36:26;101419.00;;;0.70
24639;BMP180;1641;51.306;12.384;2023-04-03T03:38:51;101340.00;;;0.60
24639;BMP180;1641;51.306;12.384;2023-04-03T03:41:17;101430.00;;;0.50
24639;BMP180;1641;51.306;12.384;2023-04-03T03:43:42;101435.00;;;0.60
24639;BMP180;1641;51.306;12.384;2023-04-03T03:46:07;101430.00;;;0.60
24639;BMP180;1641;51.306;12.384;2023-04-03T03:48:32;101430.00;;;0.60
24639;BMP180;1641;51.306;12.384;2023-04-03T03:50:58;101417.00;;;0.60
24639;BMP180;1641;51.306;12.384;2023-04-03T03:53:23;101438.00;;;0.70
24639;BMP180;1641;51.306;12.384;2023-04-03T03:55:48;101424.00;;;0.80
24639;BMP180;1641;51.306;12.384;2023-04-03T03:58:14;101432.00;;;0.50
24639;BMP180;1641;51.306;12.384;2023-04-03T04:00:39;101397.00;;;0.60
24639;BMP180;1641;51.306;12.384;2023-04-03T04:03:05;101448.00;;;0.70
24639;BMP180;1641;51.306;12.384;2023-04-03T04:05:30;101421.00;;;0.60
24639;BMP180;1641;51.306;12.384;2023-04-03T04:07:55;101395.00;;;0.30
24639;BMP180;1641;51.306;12.384;2023-04-03T04:10:20;101442.00;;;0.50
24639;BMP180;1641;51.306;12.384;2023-04-03T04:12:46;101449.00;;;0.40
24639;BMP180;1641;51.306;12.384;2023-04-03T04:15:11;101446.00;;;0.40
24639;BMP180;1641;51.306;12.384;2023-04-03T04:17:36;101449.00;;;0.50
24639;BMP180;1641;51.306;12.384;2023-04-03T04:20:04;101453.00;;;0.60
24639;BMP180;1641;51.306;12.384;2023-04-03T04:22:30;101455.00;;;0.20
24639;BMP180;1641;51.306;12.384;2023-04-03T04:24:55;101451.00;;;0.20
24639;BMP180;1641;51.306;12.384;2023-04-03T04:27:23;101442.00;;;0.30
24639;BMP180;1641;51.306;12.384;2023-04-03T04:29:49;101460.00;;;0.20
24639;BMP180;1641;51.306;12.384;2023-04-03T04:32:14;101466.00;;;0.60
24639;BMP180;1641;51.306;12.384;2023-04-03T04:34:40;101468.00;;;0.40
24639;BMP180;1641;51.306;12.384;2023-04-03T04:37:05;101452.00;;;0.60
24639;BMP180;1641;51.306;12.384;2023-04-03T04:39:30;101471.00;;;0.40
24639;BMP180;1641;51.306;12.384;2023-04-03T04:41:55;101472.00;;;0.40
24639;BMP180;1641;51.306;12.384;2023-04-03T04:44:21;101446.00;;;0.10
24639;BMP180;1641;51.306;12.384;2023-04-03T04:46:46;101448.00;;;0.20
24639;BMP180;1641;51.306;12.384;2023-04-03T04:49:11;101427.00;;;0.20
24639;BMP180;1641;51.306;12.384;2023-04-03T04:51:36;101457.00;;;0.20
24639;BMP180;1641;51.306;12.384;2023-04-03T04:54:02;101465.00;;;0.20
24639;BMP180;1641;51.306;12.384;2023-04-03T04:56:27;101473.00;;;0.40
24639;BMP180;1641;51.306;12.384;2023-04-03T04:58:52;101469.00;;;0.20
24639;BMP180;1641;51.306;12.384;2023-04-03T05:01:17;101475.00;;;0.40
24639;BMP180;1641;51.306;12.384;2023-04-03T05:03:43;101471.00;;;0.10
24639;BMP180;1641;51.306;12.384;2023-04-03T05:06:09;101487.00;;;0.20
24639;BMP180;1641;51.306;12.384;2023-04-03T05:08:34;101476.00;;;0.00
24639;BMP180;1641;51.306;12.384;2023-04-03T05:11:00;101471.00;;;0.00
24639;BMP180;1641;51.306;12.384;2023-04-03T05:13:25;101490.00;;;0.30
24639;BMP180;1641;51.306;12.384;2023-04-03T05:15:50;101485.00;;;0.40
24639;BMP180;1641;51.306;12.384;2023-04-03T05:18:16;101479.00;;;0.40
24639;BMP180;1641;51.306;12.384;2023-04-03T05:20:41;101495.00;;;0.30
24639;BMP180;1641;51.306;12.384;2023-04-03T05:23:09;101471.00;;;0.50
24639;BMP180;1641;51.306;12.384;2023-04-03T05:25:34;101499.00;;;0.40
24639;BMP180;1641;51.306;12.384;2023-04-03T05:28:00;101492.00;;;0.50
24639;BMP180;1641;51.306;12.384;2023-04-03T05:30:26;101461.00;;;0.40
24639;BMP180;1641;51.306;12.384;2023-04-03T05:32:51;101490.00;;;0.60
24639;BMP180;1641;51.306;12.384;2023-04-03T05:35:16;101496.00;;;0.30
24639;BMP180;1641;51.306;12.384;2023-04-03T05:37:41;101481.00;;;0.50
24639;BMP180;1641;51.306;12.384;2023-04-03T05:40:08;101497.00;;;0.70
24639;BMP180;1641;51.306;12.384;2023-04-03T05:42:33;101497.00;;;0.70
24639;BMP180;1641;51.306;12.384;2023-04-03T05:44:58;101508.00;;;0.40
24639;BMP180;1641;51.306;12.384;2023-04-03T05:47:24;101510.00;;;0.70
24639;BMP180;1641;51.306;12.384;2023-04-03T05:49:49;101506.00;;;0.50
24639;BMP180;1641;51.306;12.384;2023-04-03T05:52:22;101508.00;;;0.50
24639;BMP180;1641;51.306;12.384;2023-04-03T05:54:48;101439.00;;;0.60
24639;BMP180;1641;51.306;12.384;2023-04-03T05:57:14;101513.00;;;0.80
24639;BMP180;1641;51.306;12.384;2023-04-03T05:59:41;101520.00;;;1.00
24639;BMP180;1641;51.306;12.384;2023-04-03T06:02:06;101515.00;;;0.80
24639;BMP180;1641;51.306;12.384;2023-04-03T06:04:33;101506.00;;;0.90
24639;BMP180;1641;51.306;12.384;2023-04-03T06:07:12;101518.00;;;1.10
24639;BMP180;1641;51.306;12.384;2023-04-03T06:10:03;101523.00;;;1.10
24639;BMP180;1641;51.306;12.384;2023-04-03T06:12:29;101530.00;;;1.30
24639;BMP180;1641;51.306;12.384;2023-04-03T06:14:57;101524.00;;;1.60
24639;BMP180;1641;51.306;12.384;2023-04-03T06:17:26;101538.00;;;2.30
24639;BMP180;1641;51.306;12.384;2023-04-03T06:19:52;101532.00;;;2.90
24639;BMP180;1641;51.306;12.384;2023-04-03T06:22:24;101529.00;;;4.10
24639;BMP180;1641;51.306;12.384;2023-04-03T06:24:51;101445.00;;;3.80
24639;BMP180;1641;51.306;12.384;2023-04-03T06:27:17;101532.00;;;3.40
24639;BMP180;1641;51.306;12.384;2023-04-03T06:29:45;101537.00;;;3.60
24639;BMP180;1641;51.306;12.384;2023-04-03T06:32:11;101535.00;;;4.00
24639;BMP180;1641;51.306;12.384;2023-04-03T06:34:36;101524.00;;;4.60
24639;BMP180;1641;51.306;12.384;2023-04-03T06:37:02;101521.00;;;4.90
24639;BMP180;1641;51.306;12.384;2023-04-03T06:39:27;101548.00;;;4.80
24639;BMP180;1641;51.306;12.384;2023-04-03T06:41:52;101545.00;;;4.20
24639;BMP180;1641;51.306;12.384;2023-04-03T06:44:18;101556.00;;;4.50
24639;BMP180;1641;51.306;12.384;2023-04-03T06:46:43;101537.00;;;4.60
24639;BMP180;1641;51.306;12.384;2023-04-03T06:49:13;101530.00;;;5.60
24639;BMP180;1641;51.306;12.384;2023-04-03T06:51:39;101549.00;;;4.60
24639;BMP180;1641;51.306;12.384;2023-04-03T06:54:06;101539.00;;;4.60
24639;BMP180;1641;51.306;12.384;2023-04-03T06:56:32;101564.00;;;5.60
24639;BMP180;1641;51.306;12.384;2023-04-03T06:58:57;101554.00;;;6.30
24639;BMP180;1641;51.306;12.384;2023-04-03T07:01:25;101545.00;;;4.50
24639;BMP180;1641;51.306;12.384;2023-04-03T07:03:51;101565.00;;;5.00
24639;BMP180;1641;51.306;12.384;2023-04-03T07:06:19;101541.00;;;5.70
24639;BMP180;1641;51.306;12.384;2023-04-03T07:08:45;101551.00;;;6.00
24639;BMP180;1641;51.306;12.384;2023-04-03T07:11:12;101564.00;;;5.80
24639;BMP180;1641;51.306;12.384;2023-04-03T07:13:38;101567.00;;;6.40
24639;BMP180;1641;51.306;12.384;2023-04-03T07:16:04;101563.00;;;6.60
24639;BMP180;1641;51.306;12.384;2023-04-03T07:18:31;101578.00;;;6.20
24639;BMP180;1641;51.306;12.384;2023-04-03T07:20:57;101544.00;;;6.90
24639;BMP180;1641;51.306;12.384;2023-04-03T07:23:25;101572.00;;;6.50
24639;BMP180;1641;51.306;12.384;2023-04-03T07:25:51;101583.00;;;7.20
24639;BMP180;1641;51.306;12.384;2023-04-03T07:28:18;101581.00;;;7.20
24639;BMP180;1641;51.306;12.384;2023-04-03T07:30:45;101585.00;;;6.40
24639;BMP180;1641;51.306;12.384;2023-04-03T07:33:11;101509.00;;;5.50
24639;BMP180;1641;51.306;12.384;2023-04-03T07:35:37;101581.00;;;5.20
24639;BMP180;1641;51.306;12.384;2023-04-03T07:38:02;101528.00;;;4.80
24639;BMP180;1641;51.306;12.384;2023-04-03T07:40:28;101588.00;;;5.50
24639;BMP180;1641;51.306;12.384;2023-04-03T07:42:53;101594.00;;;6.30
24639;BMP180;1641;51.306;12.384;2023-04-03T07:45:18;101595.00;;;6.30
24639;BMP180;1641;51.306;12.384;2023-04-03T07:47:44;101566.00;;;6.10
24639;BMP180;1641;51.306;12.384;2023-04-03T07:50:10;101591.00;;;6.30
24639;BMP180;1641;51.306;12.384;2023-04-03T07:52:35;101577.00;;;5.70
24639;BMP180;1641;51.306;12.384;2023-04-03T07:55:03;101592.00;;;6.80
24639;BMP180;1641;51.306;12.384;2023-04-03T07:57:31;101594.00;;;8.60
24639;BMP180;1641;51.306;12.384;2023-04-03T07:59:59;101587.00;;;8.60
24639;BMP180;1641;51.306;12.384;2023-04-03T08:02:25;101591.00;;;7.70
24639;BMP180;1641;51.306;12.384;2023-04-03T08:04:53;101574.00;;;6.80
24639;BMP180;1641;51.306;12.384;2023-04-03T08:07:25;101586.00;;;7.40
24639;BMP180;1641;51.306;12.384;2023-04-03T08:09:50;101592.00;;;8.80
24639;BMP180;1641;51.306;12.384;2023-04-03T08:12:15;101557.00;;;8.90
24639;BMP180;1641;51.306;12.384;2023-04-03T08:14:44;101586.00;;;10.50
24639;BMP180;1641;51.306;12.384;2023-04-03T08:17:09;101587.00;;;8.40
24639;BMP180;1641;51.306;12.384;2023-04-03T08:19:40;101581.00;;;8.70
24639;BMP180;1641;51.306;12.384;2023-04-03T08:22:06;101602.00;;;6.40
24639;BMP180;1641;51.306;12.384;2023-04-03T08:24:32;101584.00;;;5.00
24639;BMP180;1641;51.306;12.384;2023-04-03T08:27:01;101560.00;;;4.30
24639;BMP180;1641;51.306;12.384;2023-04-03T08:29:27;101600.00;;;6.50
24639;BMP180;1641;51.306;12.384;2023-04-03T08:31:52;101593.00;;;8.10
24639;BMP180;1641;51.306;12.384;2023-04-03T08:34:19;101581.00;;;8.90
24639;BMP180;1641;51.306;12.384;2023-04-03T08:36:44;101595.00;;;9.60
24639;BMP180;1641;51.306;12.384;2023-04-03T08:39:10;101602.00;;;9.50
24639;BMP180;1641;51.306;12.384;2023-04-03T08:41:40;101564.00;;;8.80
24639;BMP180;1641;51.306;12.384;2023-04-03T08:47:36;101588.00;;;5.80
24639;BMP180;1641;51.306;12.384;2023-04-03T08:50:06;101586.00;;;6.40
24639;BMP180;1641;51.306;12.384;2023-04-03T08:55:24;101597.00;;;5.40
24639;BMP180;1641;51.306;12.384;2023-04-03T08:58:05;101604.00;;;4.60
24639;BMP180;1641;51.306;12.384;2023-04-03T09:00:51;101587.00;;;6.70
24639;BMP180;1641;51.306;12.384;2023-04-03T09:03:20;101598.00;;;8.60
24639;BMP180;1641;51.306;12.384;2023-04-03T09:08:26;101561.00;;;8.50
24639;BMP180;1641;51.306;12.384;2023-04-03T09:13:43;101595.00;;;6.00
24639;BMP180;1641;51.306;12.384;2023-04-03T09:16:35;101608.00;;;6.20
24639;BMP180;1641;51.306;12.384;2023-04-03T09:19:44;101606.00;;;5.00
24639;BMP180;1641;51.306;12.384;2023-04-03T09:22:21;101612.00;;;4.80
24639;BMP180;1641;51.306;12.384;2023-04-03T09:25:27;101603.00;;;4.70
24639;BMP180;1641;51.306;12.384;2023-04-03T09:27:55;101612.00;;;4.20
24639;BMP180;1641;51.306;12.384;2023-04-03T09:30:30;101590.00;;;5.90
24639;BMP180;1641;51.306;12.384;2023-04-03T09:32:57;101618.00;;;5.90
24639;BMP180;1641;51.306;12.384;2023-04-03T09:35:37;101483.00;;;5.20
24639;BMP180;1641;51.306;12.384;2023-04-03T09:40:38;101607.00;;;6.30
24639;BMP180;1641;51.306;12.384;2023-04-03T09:43:23;101603.00;;;5.50
24639;BMP180;1641;51.306;12.384;2023-04-03T09:45:56;101597.00;;;5.50
24639;BMP180;1641;51.306;12.384;2023-04-03T09:49:00;101600.00;;;5.80
24639;BMP180;1641;51.306;12.384;2023-04-03T09:51:30;101592.00;;;6.00
24639;BMP180;1641;51.306;12.384;2023-04-03T09:53:59;101595.00;;;5.30
24639;BMP180;1641;51.306;12.384;2023-04-03T09:56:28;101525.00;;;4.60
24639;BMP180;1641;51.306;12.384;2023-04-03T09:59:08;101574.00;;;4.50
24639;BMP180;1641;51.306;12.384;2023-04-03T10:02:00;101590.00;;;4.70
24639;BMP180;1641;51.306;12.384;2023-04-03T10:04:38;101592.00;;;4.90
24639;BMP180;1641;51.306;12.384;2023-04-03T10:07:27;101602.00;;;5.60
24639;BMP180;1641;51.306;12.384;2023-04-03T10:10:17;101591.00;;;5.70
24639;BMP180;1641;51.306;12.384;2023-04-03T10:12:43;101572.00;;;5.60
24639;BMP180;1641;51.306;12.384;2023-04-03T10:15:17;101590.00;;;6.10
24639;BMP180;1641;51.306;12.384;2023-04-03T10:17:53;101585.00;;;6.00
24639;BMP180;1641;51.306;12.384;2023-04-03T10:20:40;101593.00;;;6.00
24639;BMP180;1641;51.306;12.384;2023-04-03T10:23:21;101568.00;;;5.40
24639;BMP180;1641;51.306;12.384;2023-04-03T10:36:58;101575.00;;;6.30
24639;BMP180;1641;51.306;12.384;2023-04-03T10:39:43;101577.00;;;5.80
24639;BMP180;1641;51.306;12.384;2023-04-03T10:45:21;101574.00;;;6.80
24639;BMP180;1641;51.306;12.384;2023-04-03T10:48:07;101576.00;;;6.90
24639;BMP180;1641;51.306;12.384;2023-04-03T10:50:50;101534.00;;;6.40
24639;BMP180;1641;51.306;12.384;2023-04-03T10:56:17;101506.00;;;5.80
24639;BMP180;1641;51.306;12.384;2023-04-03T10:58:54;101500.00;;;5.90
24639;BMP180;1641;51.306;12.384;2023-04-03T11:01:26;101523.00;;;5.70
24639;BMP180;1641;51.306;12.384;2023-04-03T11:03:56;101567.00;;;5.90
24639;BMP180;1641;51.306;12.384;2023-04-03T11:06:25;101529.00;;;6.10
24639;BMP180;1641;51.306;12.384;2023-04-03T11:09:02;101542.00;;;6.00
24639;BMP180;1641;51.306;12.384;2023-04-03T11:11:38;101563.00;;;5.70
24639;BMP180;1641;51.306;12.384;2023-04-03T11:14:33;101566.00;;;5.00
24639;BMP180;1641;51.306;12.384;2023-04-03T11:17:23;101565.00;;;5.60
24639;BMP180;1641;51.306;12.384;2023-04-03T11:22:30;101556.00;;;6.80
24639;BMP180;1641;51.306;12.384;2023-04-03T11:25:03;101554.00;;;6.20
24639;BMP180;1641;51.306;12.384;2023-04-03T11:27:37;101489.00;;;6.50
24639;BMP180;1641;51.306;12.384;2023-04-03T11:30:09;101504.00;;;6.90
24639;BMP180;1641;51.306;12.384;2023-04-03T11:32:54;101548.00;;;7.10
24639;BMP180;1641;51.306;12.384;2023-04-03T11:35:22;101557.00;;;6.50
24639;BMP180;1641;51.306;12.384;2023-04-03T11:37:52;101523.00;;;5.70
24639;BMP180;1641;51.306;12.384;2023-04-03T11:40:24;101546.00;;;5.90
24639;BMP180;1641;51.306;12.384;2023-04-03T11:43:27;101546.00;;;6.00
24639;BMP180;1641;51.306;12.384;2023-04-03T11:46:01;101527.00;;;6.30
24639;BMP180;1641;51.306;12.384;2023-04-03T11:53:30;101543.00;;;5.70
24639;BMP180;1641;51.306;12.384;2023-04-03T11:55:58;101476.00;;;5.60
24639;BMP180;1641;51.306;12.384;2023-04-03T12:01:04;101450.00;;;5.80
24639;BMP180;1641;51.306;12.384;2023-04-03T12:26:47;101510.00;;;6.40
24639;BMP180;1641;51.306;12.384;2023-04-03T12:29:36;101511.00;;;6.80
24639;BMP180;1641;51.306;12.384;2023-04-03T12:32:32;101507.00;;;6.70
24639;BMP180;1641;51.306;12.384;2023-04-03T12:38:02;101506.00;;;6.00
24639;BMP180;1641;51.306;12.384;2023-04-03T12:40:51;101507.00;;;5.40
24639;BMP180;1641;51.306;12.384;2023-04-03T12:43:44;101499.00;;;5.70
24639;BMP180;1641;51.306;12.384;2023-04-03T12:46:14;101462.00;;;5.70
24639;BMP180;1641;51.306;12.384;2023-04-03T12:51:34;101493.00;;;6.60
24639;BMP180;1641;51.306;12.384;2023-04-03T12:54:04;101511.00;;;6.30
24639;BMP180;1641;51.306;12.384;2023-04-03T12:56:38;101505.00;;;6.60
24639;BMP180;1641;51.306;12.384;2023-04-03T13:01:40;101510.00;;;5.80
24639;BMP180;1641;51.306;12.384;2023-04-03T13:04:05;101506.00;;;6.10
24639;BMP180;1641;51.306;12.384;2023-04-03T13:06:36;101513.00;;;6.40
24639;BMP180;1641;51.306;12.384;2023-04-03T13:09:03;101507.00;;;6.20
24639;BMP180;1641;51.306;12.384;2023-04-03T13:11:40;101510.00;;;6.10
24639;BMP180;1641;51.306;12.384;2023-04-03T13:14:24;101484.00;;;5.70
24639;BMP180;1641;51.306;12.384;2023-04-03T13:17:04;101501.00;;;5.70
24639;BMP180;1641;51.306;12.384;2023-04-03T13:19:30;101501.00;;;6.10
24639;BMP180;1641;51.306;12.384;2023-04-03T13:22:00;101461.00;;;6.50
24639;BMP180;1641;51.306;12.384;2023-04-03T13:24:26;101497.00;;;6.50
24639;BMP180;1641;51.306;12.384;2023-04-03T13:26:52;101493.00;;;6.90
24639;BMP180;1641;51.306;12.384;2023-04-03T13:29:31;101493.00;;;6.60
24639;BMP180;1641;51.306;12.384;2023-04-03T13:31:59;101487.00;;;6.40
24639;BMP180;1641;51.306;12.384;2023-04-03T13:34:27;101496.00;;;6.40
24639;BMP180;1641;51.306;12.384;2023-04-03T13:41:47;101487.00;;;6.00
24639;BMP180;1641;51.306;12.384;2023-04-03T13:46:58;101466.00;;;6.10
24639;BMP180;1641;51.306;12.384;2023-04-03T13:51:55;101471.00;;;5.90
24639;BMP180;1641;51.306;12.384;2023-04-03T13:54:25;101493.00;;;6.50
24639;BMP180;1641;51.306;12.384;2023-04-03T13:56:55;101485.00;;;6.80
24639;BMP180;1641;51.306;12.384;2023-04-03T13:59:31;101501.00;;;6.00
24639;BMP180;1641;51.306;12.384;2023-04-03T14:06:56;101488.00;;;6.00
24639;BMP180;1641;51.306;12.384;2023-04-03T14:09:23;101483.00;;;6.00
24639;BMP180;1641;51.306;12.384;2023-04-03T14:11:50;101490.00;;;6.50
24639;BMP180;1641;51.306;12.384;2023-04-03T14:14:23;101494.00;;;5.70
24639;BMP180;1641;51.306;12.384;2023-04-03T14:16:53;101487.00;;;6.10
24639;BMP180;1641;51.306;12.384;2023-04-03T14:19:34;101414.00;;;5.80
24639;BMP180;1641;51.306;12.384;2023-04-03T14:22:10;101486.00;;;5.90
24639;BMP180;1641;51.306;12.384;2023-04-03T14:24:37;101367.00;;;5.80
24639;BMP180;1641;51.306;12.384;2023-04-03T14:27:11;101490.00;;;5.70
24639;BMP180;1641;51.306;12.384;2023-04-03T14:29:41;101500.00;;;5.50
24639;BMP180;1641;51.306;12.384;2023-04-03T14:32:06;101472.00;;;5.80
24639;BMP180;1641;51.306;12.384;2023-04-03T14:34:31;101478.00;;;5.60
24639;BMP180;1641;51.306;12.384;2023-04-03T14:36:57;101479.00;;;5.80
24639;BMP180;1641;51.306;12.384;2023-04-03T14:39:22;101479.00;;;6.00
24639;BMP180;1641;51.306;12.384;2023-04-03T14:41:50;101483.00;;;6.10
24639;BMP180;1641;51.306;12.384;2023-04-03T14:44:15;101474.00;;;5.50
24639;BMP180;1641;51.306;12.384;2023-04-03T14:46:43;101478.00;;;5.40
24639;BMP180;1641;51.306;12.384;2023-04-03T14:49:28;101487.00;;;5.60
24639;BMP180;1641;51.306;12.384;2023-04-03T14:51:55;101483.00;;;5.90
24639;BMP180;1641;51.306;12.384;2023-04-03T14:54:22;101476.00;;;5.20
24639;BMP180;1641;51.306;12.384;2023-04-03T14:57:01;101483.00;;;5.00
24639;BMP180;1641;51.306;12.384;2023-04-03T14:59:28;101440.00;;;5.50
24639;BMP180;1641;51.306;12.384;2023-04-03T15:01:55;101477.00;;;6.00
24639;BMP180;1641;51.306;12.384;2023-04-03T15:04:21;101479.00;;;5.80
24639;BMP180;1641;51.306;12.384;2023-04-03T15:06:47;101488.00;;;5.90
24639;BMP180;1641;51.306;12.384;2023-04-03T15:09:26;101485.00;;;5.90
24639;BMP180;1641;51.306;12.384;2023-04-03T15:11:53;101488.00;;;6.00
24639;BMP180;1641;51.306;12.384;2023-04-03T15:14:20;101463.00;;;5.80
24639;BMP180;1641;51.306;12.384;2023-04-03T15:16:45;101467.00;;;5.20
24639;BMP180;1641;51.306;12.384;2023-04-03T15:19:26;101452.00;;;5.50
24639;BMP180;1641;51.306;12.384;2023-04-03T15:21:54;101488.00;;;5.40
24639;BMP180;1641;51.306;12.384;2023-04-03T15:24:19;101482.00;;;5.50
24639;BMP180;1641;51.306;12.384;2023-04-03T15:26:57;101449.00;;;5.00
24639;BMP180;1641;51.306;12.384;2023-04-03T15:29:22;101469.00;;;4.90
24639;BMP180;1641;51.306;12.384;2023-04-03T15:31:48;101483.00;;;5.30
24639;BMP180;1641;51.306;12.384;2023-04-03T15:34:14;101457.00;;;5.40
24639;BMP180;1641;51.306;12.384;2023-04-03T15:36:41;101476.00;;;5.50
24639;BMP180;1641;51.306;12.384;2023-04-03T15:39:06;101476.00;;;5.50
24639;BMP180;1641;51.306;12.384;2023-04-03T15:41:34;101418.00;;;5.60
24639;BMP180;1641;51.306;12.384;2023-04-03T15:44:00;101438.00;;;5.40
24639;BMP180;1641;51.306;12.384;2023-04-03T15:46:25;101484.00;;;5.20
24639;BMP180;1641;51.306;12.384;2023-04-03T15:49:25;101484.00;;;5.10
24639;BMP180;1641;51.306;12.384;2023-04-03T15:51:57;101475.00;;;5.10
24639;BMP180;1641;51.306;12.384;2023-04-03T15:54:25;101468.00;;;5.10